sensor_id;sensor_type;location;lat;lon;timestamp;P1;durP1;ratioP1;P2;durP2;ratioP2
16468;SDS011;8345;50.902;6.956;2022-10-22T00:01:07;6.03;;;4.77;;
16468;SDS011;8345;50.902;6.956;2022-10-22T00:03:35;5.90;;;3.93;;
16468;SDS011;8345;50.902;6.956;2022-10-22T00:06:02;6.73;;;4.67;;
16468;SDS011;8345;50.902;6.956;2022-10-22T00:08:31;5.13;;;4.53;;
16468;SDS011;8345;50.902;6.956;2022-10-22T00:10:58;7.53;;;4.50;;
16468;SDS011;8345;50.902;6.956;2022-10-22T00:13:26;7.47;;;4.20;;
16468;SDS011;8345;50.902;6.956;2022-10-22T00:15:53;8.13;;;5.13;;
16468;SDS011;8345;50.902;6.956;2022-10-22T00:18:20;6.73;;;4.60;;
16468;SDS011;8345;50.902;6.956;2022-10-22T00:20:47;8.97;;;4.90;;
16468;SDS011;8345;50.902;6.956;2022-10-22T00:23:14;5.70;;;4.30;;
16468;SDS011;8345;50.902;6.956;2022-10-22T00:25:43;5.23;;;4.70;;
16468;SDS011;8345;50.902;6.956;2022-10-22T00:28:10;8.17;;;4.30;;
16468;SDS011;8345;50.902;6.956;2022-10-22T00:30:39;5.03;;;4.53;;
16468;SDS011;8345;50.902;6.956;2022-10-22T00:33:06;10.03;;;4.77;;
16468;SDS011;8345;50.902;6.956;2022-10-22T00:35:33;8.97;;;4.67;;
16468;SDS011;8345;50.902;6.956;2022-10-22T00:38:00;7.37;;;4.33;;
16468;SDS011;8345;50.902;6.956;2022-10-22T00:40:27;6.90;;;4.33;;
16468;SDS011;8345;50.902;6.956;2022-10-22T00:42:57;6.00;;;4.17;;
16468;SDS011;8345;50.902;6.956;2022-10-22T00:45:24;5.47;;;4.23;;
16468;SDS011;8345;50.902;6.956;2022-10-22T00:47:53;5.27;;;4.13;;
16468;SDS011;8345;50.902;6.956;2022-10-22T00:50:22;6.80;;;4.50;;
16468;SDS011;8345;50.902;6.956;2022-10-22T00:52:50;5.27;;;4.30;;
16468;SDS011;8345;50.902;6.956;2022-10-22T00:55:18;7.80;;;4.40;;
16468;SDS011;8345;50.902;6.956;2022-10-22T00:57:46;7.73;;;4.53;;
16468;SDS011;8345;50.902;6.956;2022-10-22T01:00:15;5.63;;;4.77;;
16468;SDS011;8345;50.902;6.956;2022-10-22T01:02:42;9.90;;;4.70;;
16468;SDS011;8345;50.902;6.956;2022-10-22T01:05:10;8.47;;;4.83;;
16468;SDS011;8345;50.902;6.956;2022-10-22T01:07:39;6.90;;;4.43;;
16468;SDS011;8345;50.902;6.956;2022-10-22T01:10:08;9.30;;;4.90;;
16468;SDS011;8345;50.902;6.956;2022-10-22T01:12:41;5.50;;;4.43;;
16468;SDS011;8345;50.902;6.956;2022-10-22T01:15:13;7.77;;;4.70;;
16468;SDS011;8345;50.902;6.956;2022-10-22T01:17:45;8.30;;;4.17;;
16468;SDS011;8345;50.902;6.956;2022-10-22T01:20:18;5.87;;;4.97;;
16468;SDS011;8345;50.902;6.956;2022-10-22T01:22:50;9.00;;;4.47;;
16468;SDS011;8345;50.902;6.956;2022-10-22T01:25:19;5.43;;;4.63;;
16468;SDS011;8345;50.902;6.956;2022-10-22T01:27:53;8.43;;;4.60;;
16468;SDS011;8345;50.902;6.956;2022-10-22T01:30:23;6.47;;;4.93;;
16468;SDS011;8345;50.902;6.956;2022-10-22T01:32:53;10.27;;;4.50;;
16468;SDS011;8345;50.902;6.956;2022-10-22T01:35:22;10.60;;;4.80;;
16468;SDS011;8345;50.902;6.956;2022-10-22T01:37:51;7.50;;;4.60;;
16468;SDS011;8345;50.902;6.956;2022-10-22T01:40:19;6.43;;;4.13;;
16468;SDS011;8345;50.902;6.956;2022-10-22T01:42:54;9.13;;;4.60;;
16468;SDS011;8345;50.902;6.956;2022-10-22T01:45:21;10.00;;;4.03;;
16468;SDS011;8345;50.902;6.956;2022-10-22T01:47:52;8.37;;;4.07;;
16468;SDS011;8345;50.902;6.956;2022-10-22T01:50:26;9.73;;;4.33;;
16468;SDS011;8345;50.902;6.956;2022-10-22T01:53:05;5.43;;;4.27;;
16468;SDS011;8345;50.902;6.956;2022-10-22T01:55:40;6.83;;;4.60;;
16468;SDS011;8345;50.902;6.956;2022-10-22T01:58:11;5.73;;;4.17;;
16468;SDS011;8345;50.902;6.956;2022-10-22T02:00:43;6.40;;;4.77;;
16468;SDS011;8345;50.902;6.956;2022-10-22T02:03:14;6.03;;;4.63;;
16468;SDS011;8345;50.902;6.956;2022-10-22T02:05:42;8.53;;;4.83;;
16468;SDS011;8345;50.902;6.956;2022-10-22T02:08:11;5.40;;;3.63;;
16468;SDS011;8345;50.902;6.956;2022-10-22T02:10:41;7.40;;;4.43;;
16468;SDS011;8345;50.902;6.956;2022-10-22T02:13:10;9.43;;;4.83;;
16468;SDS011;8345;50.902;6.956;2022-10-22T02:15:39;5.17;;;4.67;;
16468;SDS011;8345;50.902;6.956;2022-10-22T02:18:07;7.70;;;4.43;;
16468;SDS011;8345;50.902;6.956;2022-10-22T02:20:36;6.47;;;4.40;;
16468;SDS011;8345;50.902;6.956;2022-10-22T02:23:04;4.97;;;4.40;;
16468;SDS011;8345;50.902;6.956;2022-10-22T02:25:32;6.27;;;4.80;;
16468;SDS011;8345;50.902;6.956;2022-10-22T02:28:01;9.13;;;4.20;;
16468;SDS011;8345;50.902;6.956;2022-10-22T02:30:30;8.73;;;4.37;;
16468;SDS011;8345;50.902;6.956;2022-10-22T02:32:59;7.13;;;4.70;;
16468;SDS011;8345;50.902;6.956;2022-10-22T02:35:28;7.63;;;4.83;;
16468;SDS011;8345;50.902;6.956;2022-10-22T02:37:57;8.40;;;4.57;;
16468;SDS011;8345;50.902;6.956;2022-10-22T02:40:25;5.13;;;4.40;;
16468;SDS011;8345;50.902;6.956;2022-10-22T02:42:52;7.30;;;4.70;;
16468;SDS011;8345;50.902;6.956;2022-10-22T02:45:20;6.37;;;4.70;;
16468;SDS011;8345;50.902;6.956;2022-10-22T02:47:47;4.77;;;4.20;;
16468;SDS011;8345;50.902;6.956;2022-10-22T02:50:14;7.07;;;4.43;;
16468;SDS011;8345;50.902;6.956;2022-10-22T02:52:42;7.70;;;4.60;;
16468;SDS011;8345;50.902;6.956;2022-10-22T02:55:10;6.00;;;4.40;;
16468;SDS011;8345;50.902;6.956;2022-10-22T02:57:37;5.30;;;4.70;;
16468;SDS011;8345;50.902;6.956;2022-10-22T03:00:05;5.20;;;4.50;;
16468;SDS011;8345;50.902;6.956;2022-10-22T03:02:32;5.60;;;4.43;;
16468;SDS011;8345;50.902;6.956;2022-10-22T03:04:59;10.80;;;4.37;;
16468;SDS011;8345;50.902;6.956;2022-10-22T03:07:27;4.67;;;4.27;;
16468;SDS011;8345;50.902;6.956;2022-10-22T03:09:54;6.00;;;4.53;;
16468;SDS011;8345;50.902;6.956;2022-10-22T03:12:23;5.60;;;4.20;;
16468;SDS011;8345;50.902;6.956;2022-10-22T03:14:50;6.20;;;4.43;;
16468;SDS011;8345;50.902;6.956;2022-10-22T03:17:17;5.53;;;4.50;;
16468;SDS011;8345;50.902;6.956;2022-10-22T03:19:44;6.47;;;4.40;;
16468;SDS011;8345;50.902;6.956;2022-10-22T03:22:12;9.07;;;4.70;;
16468;SDS011;8345;50.902;6.956;2022-10-22T03:24:41;9.20;;;4.90;;
16468;SDS011;8345;50.902;6.956;2022-10-22T03:27:10;6.13;;;5.03;;
16468;SDS011;8345;50.902;6.956;2022-10-22T03:29:40;7.13;;;5.00;;
16468;SDS011;8345;50.902;6.956;2022-10-22T03:32:08;8.17;;;4.53;;
16468;SDS011;8345;50.902;6.956;2022-10-22T03:34:35;5.47;;;4.10;;
16468;SDS011;8345;50.902;6.956;2022-10-22T03:37:02;6.67;;;4.77;;
16468;SDS011;8345;50.902;6.956;2022-10-22T03:39:30;6.00;;;4.97;;
16468;SDS011;8345;50.902;6.956;2022-10-22T03:41:57;6.83;;;4.40;;
16468;SDS011;8345;50.902;6.956;2022-10-22T03:44:25;6.00;;;5.40;;
16468;SDS011;8345;50.902;6.956;2022-10-22T03:46:53;5.30;;;4.60;;
16468;SDS011;8345;50.902;6.956;2022-10-22T03:49:20;7.43;;;5.03;;
16468;SDS011;8345;50.902;6.956;2022-10-22T03:51:47;6.50;;;4.53;;
16468;SDS011;8345;50.902;6.956;2022-10-22T03:54:15;6.07;;;4.70;;
16468;SDS011;8345;50.902;6.956;2022-10-22T03:56:42;5.83;;;4.90;;
16468;SDS011;8345;50.902;6.956;2022-10-22T03:59:09;6.30;;;4.53;;
16468;SDS011;8345;50.902;6.956;2022-10-22T04:01:37;8.37;;;4.63;;
16468;SDS011;8345;50.902;6.956;2022-10-22T04:04:06;7.23;;;5.33;;
16468;SDS011;8345;50.902;6.956;2022-10-22T04:06:33;8.03;;;5.40;;
16468;SDS011;8345;50.902;6.956;2022-10-22T04:09:00;5.87;;;4.50;;
16468;SDS011;8345;50.902;6.956;2022-10-22T04:11:27;7.43;;;4.80;;
16468;SDS011;8345;50.902;6.956;2022-10-22T04:13:55;4.90;;;4.37;;
16468;SDS011;8345;50.902;6.956;2022-10-22T04:16:22;5.33;;;4.60;;
16468;SDS011;8345;50.902;6.956;2022-10-22T04:18:55;5.37;;;4.70;;
16468;SDS011;8345;50.902;6.956;2022-10-22T04:21:23;6.43;;;4.37;;
16468;SDS011;8345;50.902;6.956;2022-10-22T04:23:51;7.57;;;4.97;;
16468;SDS011;8345;50.902;6.956;2022-10-22T04:26:19;5.37;;;4.77;;
16468;SDS011;8345;50.902;6.956;2022-10-22T04:28:46;4.90;;;4.40;;
16468;SDS011;8345;50.902;6.956;2022-10-22T04:31:14;7.97;;;4.93;;
16468;SDS011;8345;50.902;6.956;2022-10-22T04:33:42;5.63;;;4.80;;
16468;SDS011;8345;50.902;6.956;2022-10-22T04:36:09;7.57;;;4.77;;
16468;SDS011;8345;50.902;6.956;2022-10-22T04:38:39;7.87;;;4.73;;
16468;SDS011;8345;50.902;6.956;2022-10-22T04:41:10;7.57;;;4.63;;
16468;SDS011;8345;50.902;6.956;2022-10-22T04:43:37;6.40;;;5.30;;
16468;SDS011;8345;50.902;6.956;2022-10-22T04:46:04;7.73;;;4.83;;
16468;SDS011;8345;50.902;6.956;2022-10-22T04:48:33;6.47;;;4.77;;
16468;SDS011;8345;50.902;6.956;2022-10-22T04:51:00;6.83;;;5.10;;
16468;SDS011;8345;50.902;6.956;2022-10-22T04:53:27;7.37;;;5.20;;
16468;SDS011;8345;50.902;6.956;2022-10-22T04:56:04;6.97;;;5.27;;
16468;SDS011;8345;50.902;6.956;2022-10-22T04:58:32;7.53;;;4.77;;
16468;SDS011;8345;50.902;6.956;2022-10-22T05:00:59;7.93;;;4.70;;
16468;SDS011;8345;50.902;6.956;2022-10-22T05:03:26;5.93;;;5.20;;
16468;SDS011;8345;50.902;6.956;2022-10-22T05:05:53;6.70;;;5.10;;
16468;SDS011;8345;50.902;6.956;2022-10-22T05:08:20;6.13;;;5.50;;
16468;SDS011;8345;50.902;6.956;2022-10-22T05:10:47;6.73;;;5.50;;
16468;SDS011;8345;50.902;6.956;2022-10-22T05:13:16;6.63;;;4.90;;
16468;SDS011;8345;50.902;6.956;2022-10-22T05:15:43;5.77;;;5.17;;
16468;SDS011;8345;50.902;6.956;2022-10-22T05:18:10;8.27;;;6.10;;
16468;SDS011;8345;50.902;6.956;2022-10-22T05:20:38;9.30;;;5.67;;
16468;SDS011;8345;50.902;6.956;2022-10-22T05:23:05;5.70;;;5.20;;
16468;SDS011;8345;50.902;6.956;2022-10-22T05:25:35;9.23;;;6.03;;
16468;SDS011;8345;50.902;6.956;2022-10-22T05:28:02;7.07;;;5.57;;
16468;SDS011;8345;50.902;6.956;2022-10-22T05:30:31;6.53;;;5.30;;
16468;SDS011;8345;50.902;6.956;2022-10-22T05:32:58;8.77;;;5.47;;
16468;SDS011;8345;50.902;6.956;2022-10-22T05:35:25;8.60;;;5.23;;
16468;SDS011;8345;50.902;6.956;2022-10-22T05:37:52;5.83;;;5.33;;
16468;SDS011;8345;50.902;6.956;2022-10-22T05:40:19;6.00;;;5.37;;
16468;SDS011;8345;50.902;6.956;2022-10-22T05:42:47;6.70;;;6.00;;
16468;SDS011;8345;50.902;6.956;2022-10-22T05:45:14;7.23;;;5.80;;
16468;SDS011;8345;50.902;6.956;2022-10-22T05:47:42;6.77;;;5.27;;
16468;SDS011;8345;50.902;6.956;2022-10-22T05:50:09;8.37;;;5.20;;
16468;SDS011;8345;50.902;6.956;2022-10-22T05:52:36;6.13;;;5.43;;
16468;SDS011;8345;50.902;6.956;2022-10-22T05:55:04;6.03;;;5.43;;
16468;SDS011;8345;50.902;6.956;2022-10-22T05:57:31;6.73;;;5.73;;
16468;SDS011;8345;50.902;6.956;2022-10-22T05:59:58;6.53;;;5.40;;
16468;SDS011;8345;50.902;6.956;2022-10-22T06:02:25;6.93;;;5.27;;
16468;SDS011;8345;50.902;6.956;2022-10-22T06:04:54;8.13;;;5.37;;
16468;SDS011;8345;50.902;6.956;2022-10-22T06:07:21;6.63;;;5.17;;
16468;SDS011;8345;50.902;6.956;2022-10-22T06:09:48;6.20;;;5.70;;
16468;SDS011;8345;50.902;6.956;2022-10-22T06:12:17;7.87;;;5.60;;
16468;SDS011;8345;50.902;6.956;2022-10-22T06:14:45;9.27;;;5.83;;
16468;SDS011;8345;50.902;6.956;2022-10-22T06:17:12;6.27;;;5.60;;
16468;SDS011;8345;50.902;6.956;2022-10-22T06:19:39;6.90;;;5.10;;
16468;SDS011;8345;50.902;6.956;2022-10-22T06:22:08;6.43;;;5.67;;
16468;SDS011;8345;50.902;6.956;2022-10-22T06:24:35;6.33;;;5.73;;
16468;SDS011;8345;50.902;6.956;2022-10-22T06:27:02;5.80;;;5.20;;
16468;SDS011;8345;50.902;6.956;2022-10-22T06:29:29;7.67;;;5.23;;
16468;SDS011;8345;50.902;6.956;2022-10-22T06:31:58;8.93;;;5.50;;
16468;SDS011;8345;50.902;6.956;2022-10-22T06:34:25;9.97;;;5.17;;
16468;SDS011;8345;50.902;6.956;2022-10-22T06:36:52;6.03;;;5.10;;
16468;SDS011;8345;50.902;6.956;2022-10-22T06:39:21;6.07;;;5.00;;
16468;SDS011;8345;50.902;6.956;2022-10-22T06:41:48;6.33;;;4.53;;
16468;SDS011;8345;50.902;6.956;2022-10-22T06:44:16;5.17;;;3.93;;
16468;SDS011;8345;50.902;6.956;2022-10-22T06:46:43;6.87;;;4.10;;
16468;SDS011;8345;50.902;6.956;2022-10-22T06:49:11;7.07;;;4.43;;
16468;SDS011;8345;50.902;6.956;2022-10-22T06:51:39;6.70;;;4.13;;
16468;SDS011;8345;50.902;6.956;2022-10-22T06:54:06;5.67;;;3.90;;
16468;SDS011;8345;50.902;6.956;2022-10-22T06:56:34;4.47;;;3.63;;
16468;SDS011;8345;50.902;6.956;2022-10-22T06:59:02;6.83;;;4.17;;
16468;SDS011;8345;50.902;6.956;2022-10-22T07:01:30;5.57;;;4.13;;
16468;SDS011;8345;50.902;6.956;2022-10-22T07:03:58;10.13;;;4.00;;
16468;SDS011;8345;50.902;6.956;2022-10-22T07:06:25;5.60;;;3.60;;
16468;SDS011;8345;50.902;6.956;2022-10-22T07:08:53;6.17;;;4.30;;
16468;SDS011;8345;50.902;6.956;2022-10-22T07:11:21;4.73;;;3.77;;
16468;SDS011;8345;50.902;6.956;2022-10-22T07:13:50;4.93;;;4.17;;
16468;SDS011;8345;50.902;6.956;2022-10-22T07:16:17;6.93;;;4.10;;
16468;SDS011;8345;50.902;6.956;2022-10-22T07:18:45;7.83;;;4.00;;
16468;SDS011;8345;50.902;6.956;2022-10-22T07:21:13;5.63;;;3.73;;
16468;SDS011;8345;50.902;6.956;2022-10-22T07:23:41;4.37;;;3.60;;
16468;SDS011;8345;50.902;6.956;2022-10-22T07:26:10;6.00;;;4.30;;
16468;SDS011;8345;50.902;6.956;2022-10-22T07:28:38;6.07;;;4.90;;
16468;SDS011;8345;50.902;6.956;2022-10-22T07:31:07;6.43;;;5.00;;
16468;SDS011;8345;50.902;6.956;2022-10-22T07:33:35;4.83;;;4.37;;
16468;SDS011;8345;50.902;6.956;2022-10-22T07:36:03;5.30;;;4.20;;
16468;SDS011;8345;50.902;6.956;2022-10-22T07:38:31;5.30;;;3.73;;
16468;SDS011;8345;50.902;6.956;2022-10-22T07:40:58;6.37;;;3.77;;
16468;SDS011;8345;50.902;6.956;2022-10-22T07:43:25;5.67;;;4.03;;
16468;SDS011;8345;50.902;6.956;2022-10-22T07:45:52;8.53;;;3.87;;
16468;SDS011;8345;50.902;6.956;2022-10-22T07:48:22;7.90;;;4.10;;
16468;SDS011;8345;50.902;6.956;2022-10-22T07:50:49;6.20;;;3.50;;
16468;SDS011;8345;50.902;6.956;2022-10-22T07:53:16;6.47;;;3.20;;
16468;SDS011;8345;50.902;6.956;2022-10-22T07:55:46;7.70;;;3.80;;
16468;SDS011;8345;50.902;6.956;2022-10-22T07:58:14;5.50;;;3.43;;
16468;SDS011;8345;50.902;6.956;2022-10-22T08:00:41;4.70;;;3.60;;
16468;SDS011;8345;50.902;6.956;2022-10-22T08:03:08;5.07;;;3.30;;
16468;SDS011;8345;50.902;6.956;2022-10-22T08:05:37;7.00;;;3.13;;
16468;SDS011;8345;50.902;6.956;2022-10-22T08:08:05;5.07;;;3.00;;
16468;SDS011;8345;50.902;6.956;2022-10-22T08:10:32;10.00;;;4.50;;
16468;SDS011;8345;50.902;6.956;2022-10-22T08:12:59;6.97;;;2.83;;
16468;SDS011;8345;50.902;6.956;2022-10-22T08:15:27;6.47;;;3.10;;
16468;SDS011;8345;50.902;6.956;2022-10-22T08:17:55;5.40;;;2.50;;
16468;SDS011;8345;50.902;6.956;2022-10-22T08:20:22;4.37;;;2.60;;
16468;SDS011;8345;50.902;6.956;2022-10-22T08:22:50;8.67;;;3.43;;
16468;SDS011;8345;50.902;6.956;2022-10-22T08:25:18;7.37;;;2.80;;
16468;SDS011;8345;50.902;6.956;2022-10-22T08:27:45;6.60;;;3.13;;
16468;SDS011;8345;50.902;6.956;2022-10-22T08:30:12;6.23;;;3.07;;
16468;SDS011;8345;50.902;6.956;2022-10-22T08:32:40;6.87;;;2.90;;
16468;SDS011;8345;50.902;6.956;2022-10-22T08:35:07;6.40;;;3.30;;
16468;SDS011;8345;50.902;6.956;2022-10-22T08:37:35;6.87;;;3.00;;
16468;SDS011;8345;50.902;6.956;2022-10-22T08:40:04;6.70;;;3.00;;
16468;SDS011;8345;50.902;6.956;2022-10-22T08:42:41;6.27;;;3.20;;
16468;SDS011;8345;50.902;6.956;2022-10-22T08:45:17;3.07;;;2.40;;
16468;SDS011;8345;50.902;6.956;2022-10-22T08:47:50;4.77;;;3.00;;
16468;SDS011;8345;50.902;6.956;2022-10-22T08:50:22;8.07;;;3.80;;
16468;SDS011;8345;50.902;6.956;2022-10-22T08:52:50;5.13;;;3.50;;
16468;SDS011;8345;50.902;6.956;2022-10-22T08:55:20;7.93;;;2.70;;
16468;SDS011;8345;50.902;6.956;2022-10-22T08:57:51;7.07;;;2.33;;
16468;SDS011;8345;50.902;6.956;2022-10-22T09:00:23;5.63;;;2.80;;
16468;SDS011;8345;50.902;6.956;2022-10-22T09:02:55;5.57;;;2.50;;
16468;SDS011;8345;50.902;6.956;2022-10-22T09:05:28;9.57;;;7.23;;
16468;SDS011;8345;50.902;6.956;2022-10-22T09:07:58;15.47;;;11.50;;
16468;SDS011;8345;50.902;6.956;2022-10-22T09:10:28;12.03;;;8.63;;
16468;SDS011;8345;50.902;6.956;2022-10-22T09:12:57;14.73;;;9.73;;
16468;SDS011;8345;50.902;6.956;2022-10-22T09:15:24;13.73;;;8.23;;
16468;SDS011;8345;50.902;6.956;2022-10-22T09:17:55;9.53;;;5.30;;
16468;SDS011;8345;50.902;6.956;2022-10-22T09:20:24;7.03;;;6.17;;
16468;SDS011;8345;50.902;6.956;2022-10-22T09:22:57;4.17;;;2.57;;
16468;SDS011;8345;50.902;6.956;2022-10-22T09:25:28;3.70;;;2.37;;
16468;SDS011;8345;50.902;6.956;2022-10-22T09:27:56;4.60;;;2.77;;
16468;SDS011;8345;50.902;6.956;2022-10-22T09:30:24;6.33;;;2.87;;
16468;SDS011;8345;50.902;6.956;2022-10-22T09:32:53;9.63;;;2.80;;
16468;SDS011;8345;50.902;6.956;2022-10-22T09:35:22;5.77;;;2.30;;
16468;SDS011;8345;50.902;6.956;2022-10-22T09:37:52;4.23;;;2.13;;
16468;SDS011;8345;50.902;6.956;2022-10-22T09:40:19;3.10;;;1.90;;
16468;SDS011;8345;50.902;6.956;2022-10-22T09:42:48;5.90;;;2.30;;
16468;SDS011;8345;50.902;6.956;2022-10-22T09:45:18;3.83;;;2.40;;
16468;SDS011;8345;50.902;6.956;2022-10-22T09:47:45;5.63;;;2.10;;
16468;SDS011;8345;50.902;6.956;2022-10-22T09:50:17;5.00;;;2.77;;
16468;SDS011;8345;50.902;6.956;2022-10-22T09:52:45;6.03;;;2.47;;
16468;SDS011;8345;50.902;6.956;2022-10-22T09:55:20;4.57;;;2.53;;
16468;SDS011;8345;50.902;6.956;2022-10-22T09:57:52;6.00;;;2.83;;
16468;SDS011;8345;50.902;6.956;2022-10-22T10:00:20;5.93;;;3.00;;
16468;SDS011;8345;50.902;6.956;2022-10-22T10:02:52;4.67;;;2.33;;
16468;SDS011;8345;50.902;6.956;2022-10-22T10:05:26;4.60;;;2.40;;
16468;SDS011;8345;50.902;6.956;2022-10-22T10:07:55;5.67;;;2.43;;
16468;SDS011;8345;50.902;6.956;2022-10-22T10:10:27;6.03;;;2.63;;
16468;SDS011;8345;50.902;6.956;2022-10-22T10:12:58;4.70;;;2.10;;
16468;SDS011;8345;50.902;6.956;2022-10-22T10:15:28;5.80;;;2.40;;
16468;SDS011;8345;50.902;6.956;2022-10-22T10:18:01;5.80;;;3.50;;
16468;SDS011;8345;50.902;6.956;2022-10-22T10:20:32;4.77;;;2.63;;
16468;SDS011;8345;50.902;6.956;2022-10-22T10:23:05;6.47;;;2.37;;
16468;SDS011;8345;50.902;6.956;2022-10-22T10:25:46;5.37;;;2.23;;
16468;SDS011;8345;50.902;6.956;2022-10-22T10:28:24;7.30;;;2.33;;
16468;SDS011;8345;50.902;6.956;2022-10-22T10:30:56;4.00;;;2.57;;
16468;SDS011;8345;50.902;6.956;2022-10-22T10:33:30;4.50;;;2.30;;
16468;SDS011;8345;50.902;6.956;2022-10-22T10:36:01;3.67;;;1.80;;
16468;SDS011;8345;50.902;6.956;2022-10-22T10:38:31;4.10;;;2.17;;
16468;SDS011;8345;50.902;6.956;2022-10-22T10:41:03;5.30;;;2.07;;
16468;SDS011;8345;50.902;6.956;2022-10-22T10:43:37;4.47;;;1.80;;
16468;SDS011;8345;50.902;6.956;2022-10-22T10:46:11;6.80;;;1.87;;
16468;SDS011;8345;50.902;6.956;2022-10-22T10:48:52;4.60;;;1.77;;
16468;SDS011;8345;50.902;6.956;2022-10-22T10:51:34;4.20;;;2.27;;
16468;SDS011;8345;50.902;6.956;2022-10-22T10:54:06;4.73;;;1.83;;
16468;SDS011;8345;50.902;6.956;2022-10-22T10:56:40;3.33;;;1.43;;
16468;SDS011;8345;50.902;6.956;2022-10-22T10:59:16;2.70;;;1.37;;
16468;SDS011;8345;50.902;6.956;2022-10-22T11:04:33;4.83;;;1.50;;
16468;SDS011;8345;50.902;6.956;2022-10-22T11:07:08;3.97;;;1.27;;
16468;SDS011;8345;50.902;6.956;2022-10-22T11:09:38;3.67;;;1.57;;
16468;SDS011;8345;50.902;6.956;2022-10-22T11:12:09;3.93;;;1.30;;
16468;SDS011;8345;50.902;6.956;2022-10-22T11:14:44;3.50;;;1.33;;
16468;SDS011;8345;50.902;6.956;2022-10-22T11:17:14;4.70;;;1.30;;
16468;SDS011;8345;50.902;6.956;2022-10-22T11:19:44;3.63;;;1.40;;
16468;SDS011;8345;50.902;6.956;2022-10-22T11:22:15;2.27;;;1.57;;
16468;SDS011;8345;50.902;6.956;2022-10-22T11:24:45;5.30;;;1.73;;
16468;SDS011;8345;50.902;6.956;2022-10-22T11:27:19;3.47;;;1.30;;
16468;SDS011;8345;50.902;6.956;2022-10-22T11:29:50;3.43;;;1.63;;
16468;SDS011;8345;50.902;6.956;2022-10-22T11:32:20;2.87;;;1.27;;
16468;SDS011;8345;50.902;6.956;2022-10-22T11:34:51;3.30;;;1.53;;
16468;SDS011;8345;50.902;6.956;2022-10-22T11:37:20;3.57;;;1.83;;
16468;SDS011;8345;50.902;6.956;2022-10-22T11:39:49;2.80;;;1.50;;
16468;SDS011;8345;50.902;6.956;2022-10-22T11:42:18;5.63;;;1.63;;
16468;SDS011;8345;50.902;6.956;2022-10-22T11:44:47;5.27;;;1.87;;
16468;SDS011;8345;50.902;6.956;2022-10-22T11:47:18;3.13;;;1.27;;
16468;SDS011;8345;50.902;6.956;2022-10-22T11:49:53;3.27;;;1.50;;
16468;SDS011;8345;50.902;6.956;2022-10-22T11:52:22;4.23;;;1.40;;
16468;SDS011;8345;50.902;6.956;2022-10-22T11:54:52;2.67;;;1.33;;
16468;SDS011;8345;50.902;6.956;2022-10-22T11:57:21;3.30;;;1.63;;
16468;SDS011;8345;50.902;6.956;2022-10-22T11:59:52;3.33;;;1.60;;
16468;SDS011;8345;50.902;6.956;2022-10-22T12:02:40;2.57;;;1.63;;
16468;SDS011;8345;50.902;6.956;2022-10-22T12:08:00;7.00;;;2.47;;
16468;SDS011;8345;50.902;6.956;2022-10-22T12:10:33;3.80;;;1.83;;
16468;SDS011;8345;50.902;6.956;2022-10-22T12:13:01;3.13;;;1.33;;
16468;SDS011;8345;50.902;6.956;2022-10-22T12:15:29;4.00;;;1.90;;
16468;SDS011;8345;50.902;6.956;2022-10-22T12:17:59;2.27;;;1.17;;
16468;SDS011;8345;50.902;6.956;2022-10-22T12:20:28;6.57;;;2.00;;
16468;SDS011;8345;50.902;6.956;2022-10-22T12:22:56;4.80;;;1.70;;
16468;SDS011;8345;50.902;6.956;2022-10-22T12:25:25;4.77;;;1.93;;
16468;SDS011;8345;50.902;6.956;2022-10-22T12:27:56;2.07;;;1.37;;
16468;SDS011;8345;50.902;6.956;2022-10-22T12:30:24;2.83;;;1.60;;
16468;SDS011;8345;50.902;6.956;2022-10-22T12:32:52;4.17;;;1.50;;
16468;SDS011;8345;50.902;6.956;2022-10-22T12:35:23;4.67;;;1.50;;
16468;SDS011;8345;50.902;6.956;2022-10-22T12:37:51;5.27;;;1.77;;
16468;SDS011;8345;50.902;6.956;2022-10-22T12:40:19;4.77;;;1.40;;
16468;SDS011;8345;50.902;6.956;2022-10-22T12:42:47;4.73;;;1.50;;
16468;SDS011;8345;50.902;6.956;2022-10-22T12:45:15;5.30;;;1.50;;
16468;SDS011;8345;50.902;6.956;2022-10-22T12:47:44;5.23;;;1.50;;
16468;SDS011;8345;50.902;6.956;2022-10-22T12:50:14;6.30;;;1.53;;
16468;SDS011;8345;50.902;6.956;2022-10-22T12:52:46;2.63;;;1.37;;
16468;SDS011;8345;50.902;6.956;2022-10-22T12:55:16;3.03;;;1.13;;
16468;SDS011;8345;50.902;6.956;2022-10-22T12:57:45;3.13;;;1.67;;
16468;SDS011;8345;50.902;6.956;2022-10-22T13:00:22;4.17;;;1.70;;
16468;SDS011;8345;50.902;6.956;2022-10-22T13:02:52;5.23;;;1.50;;
16468;SDS011;8345;50.902;6.956;2022-10-22T13:05:21;2.83;;;1.40;;
16468;SDS011;8345;50.902;6.956;2022-10-22T13:07:53;4.73;;;1.30;;
16468;SDS011;8345;50.902;6.956;2022-10-22T13:10:22;5.10;;;1.63;;
16468;SDS011;8345;50.902;6.956;2022-10-22T13:12:50;4.37;;;1.30;;
16468;SDS011;8345;50.902;6.956;2022-10-22T13:15:21;3.60;;;1.63;;
16468;SDS011;8345;50.902;6.956;2022-10-22T13:17:48;4.00;;;1.33;;
16468;SDS011;8345;50.902;6.956;2022-10-22T13:20:17;2.77;;;1.37;;
16468;SDS011;8345;50.902;6.956;2022-10-22T13:22:56;3.50;;;1.50;;
16468;SDS011;8345;50.902;6.956;2022-10-22T13:25:25;4.33;;;1.70;;
16468;SDS011;8345;50.902;6.956;2022-10-22T13:27:53;2.77;;;1.20;;
16468;SDS011;8345;50.902;6.956;2022-10-22T13:30:23;4.60;;;1.20;;
16468;SDS011;8345;50.902;6.956;2022-10-22T13:32:51;1.67;;;1.20;;
16468;SDS011;8345;50.902;6.956;2022-10-22T13:35:20;3.30;;;1.20;;
16468;SDS011;8345;50.902;6.956;2022-10-22T13:37:47;3.63;;;0.97;;
16468;SDS011;8345;50.902;6.956;2022-10-22T13:40:20;3.37;;;1.50;;
16468;SDS011;8345;50.902;6.956;2022-10-22T13:42:47;2.97;;;1.30;;
16468;SDS011;8345;50.902;6.956;2022-10-22T13:45:15;2.23;;;1.20;;
16468;SDS011;8345;50.902;6.956;2022-10-22T13:47:47;2.70;;;1.30;;
16468;SDS011;8345;50.902;6.956;2022-10-22T13:50:16;4.50;;;1.57;;
16468;SDS011;8345;50.902;6.956;2022-10-22T13:52:45;3.17;;;1.30;;
16468;SDS011;8345;50.902;6.956;2022-10-22T13:55:14;3.10;;;1.30;;
16468;SDS011;8345;50.902;6.956;2022-10-22T13:57:43;3.83;;;1.73;;
16468;SDS011;8345;50.902;6.956;2022-10-22T14:00:12;2.67;;;1.27;;
16468;SDS011;8345;50.902;6.956;2022-10-22T14:02:40;5.73;;;1.73;;
16468;SDS011;8345;50.902;6.956;2022-10-22T14:05:08;4.90;;;1.83;;
16468;SDS011;8345;50.902;6.956;2022-10-22T14:07:35;3.13;;;1.70;;
16468;SDS011;8345;50.902;6.956;2022-10-22T14:10:05;4.53;;;1.97;;
16468;SDS011;8345;50.902;6.956;2022-10-22T14:12:39;4.97;;;1.50;;
16468;SDS011;8345;50.902;6.956;2022-10-22T14:15:08;2.63;;;1.30;;
16468;SDS011;8345;50.902;6.956;2022-10-22T14:17:49;2.57;;;1.57;;
16468;SDS011;8345;50.902;6.956;2022-10-22T14:20:23;4.40;;;1.40;;
16468;SDS011;8345;50.902;6.956;2022-10-22T14:22:51;2.70;;;1.20;;
16468;SDS011;8345;50.902;6.956;2022-10-22T14:25:23;2.00;;;1.50;;
16468;SDS011;8345;50.902;6.956;2022-10-22T14:27:53;4.17;;;1.80;;
16468;SDS011;8345;50.902;6.956;2022-10-22T14:30:23;4.13;;;1.60;;
16468;SDS011;8345;50.902;6.956;2022-10-22T14:32:50;3.30;;;1.60;;
16468;SDS011;8345;50.902;6.956;2022-10-22T14:35:18;2.10;;;1.33;;
16468;SDS011;8345;50.902;6.956;2022-10-22T14:37:46;3.43;;;1.30;;
16468;SDS011;8345;50.902;6.956;2022-10-22T14:40:15;3.37;;;1.30;;
16468;SDS011;8345;50.902;6.956;2022-10-22T14:42:45;4.07;;;1.73;;
16468;SDS011;8345;50.902;6.956;2022-10-22T14:45:16;8.13;;;1.73;;
16468;SDS011;8345;50.902;6.956;2022-10-22T14:47:44;4.40;;;1.60;;
16468;SDS011;8345;50.902;6.956;2022-10-22T14:50:12;4.50;;;1.60;;
16468;SDS011;8345;50.902;6.956;2022-10-22T14:52:39;3.37;;;1.40;;
16468;SDS011;8345;50.902;6.956;2022-10-22T14:55:07;2.23;;;1.50;;
16468;SDS011;8345;50.902;6.956;2022-10-22T14:57:35;3.27;;;1.57;;
16468;SDS011;8345;50.902;6.956;2022-10-22T15:00:03;3.30;;;1.30;;
16468;SDS011;8345;50.902;6.956;2022-10-22T15:02:30;4.60;;;2.20;;
16468;SDS011;8345;50.902;6.956;2022-10-22T15:04:59;2.50;;;1.20;;
16468;SDS011;8345;50.902;6.956;2022-10-22T15:07:26;3.53;;;1.20;;
16468;SDS011;8345;50.902;6.956;2022-10-22T15:09:54;2.43;;;1.33;;
16468;SDS011;8345;50.902;6.956;2022-10-22T15:12:21;2.90;;;1.70;;
16468;SDS011;8345;50.902;6.956;2022-10-22T15:14:49;3.87;;;1.80;;
16468;SDS011;8345;50.902;6.956;2022-10-22T15:17:16;5.00;;;1.60;;